createdAt,value
2022-12-19T00:00:32.769Z,66.73
2022-12-19T00:03:00.756Z,66.93
2022-12-19T00:05:28.946Z,67.08
2022-12-19T00:07:57.176Z,66.99
2022-12-19T00:10:26.896Z,67.42
2022-12-19T00:12:54.840Z,67.72
2022-12-19T00:15:22.838Z,67.50
2022-12-19T00:17:52.169Z,67.35
2022-12-19T00:20:20.035Z,67.68
2022-12-19T00:22:48.091Z,68.13
2022-12-19T00:25:23.138Z,67.96
2022-12-19T00:27:51.445Z,68.12
2022-12-19T00:30:19.385Z,68.01
2022-12-19T00:32:47.708Z,68.23
2022-12-19T00:35:17.543Z,68.29
2022-12-19T00:37:49.684Z,69.03
2022-12-19T00:40:18.537Z,69.36
2022-12-19T00:42:53.165Z,69.13
2022-12-19T00:45:21.620Z,69.50
2022-12-19T00:47:49.470Z,69.42
2022-12-19T00:50:18.787Z,69.55
2022-12-19T00:52:46.712Z,69.27
2022-12-19T00:55:19.403Z,68.97
2022-12-19T00:57:47.994Z,69.13
2022-12-19T01:00:17.950Z,69.21
2022-12-19T01:02:46.589Z,69.23
2022-12-19T01:05:14.722Z,69.38
2022-12-19T01:07:44.051Z,69.62
2022-12-19T01:10:12.052Z,69.81
2022-12-19T01:12:47.772Z,70.08
2022-12-19T01:15:21.285Z,70.02
2022-12-19T01:17:49.323Z,69.97
2022-12-19T01:20:21.354Z,70.55
2022-12-19T01:23:00.465Z,70.34
2022-12-19T01:25:28.780Z,70.27
2022-12-19T01:27:57.773Z,70.40
2022-12-19T01:30:26.361Z,70.36
2022-12-19T01:32:57.618Z,70.95
2022-12-19T01:35:28.017Z,71.50
2022-12-19T01:38:08.207Z,71.35
2022-12-19T01:40:38.515Z,70.90
2022-12-19T01:43:07.770Z,70.55
2022-12-19T01:45:43.648Z,70.20
2022-12-19T01:48:18.592Z,70.42
2022-12-19T01:51:00.613Z,70.88
2022-12-19T01:53:36.654Z,70.73
2022-12-19T01:56:17.324Z,71.07
2022-12-19T01:58:47.050Z,70.70
2022-12-19T02:01:17.297Z,70.88
2022-12-19T02:03:46.820Z,70.84
2022-12-19T02:06:15.700Z,70.73
2022-12-19T02:08:47.169Z,70.35
2022-12-19T02:11:16.416Z,70.46
2022-12-19T02:13:44.889Z,71.02
2022-12-19T02:16:25.186Z,71.46
2022-12-19T02:19:05.481Z,72.01
2022-12-19T02:21:43.773Z,72.33
2022-12-19T02:24:44.334Z,72.66
2022-12-19T02:27:40.206Z,73.90
2022-12-19T05:49:16.952Z,82.05
2022-12-19T05:51:50.391Z,82.20
2022-12-19T05:54:19.011Z,82.83
2022-12-19T05:56:47.053Z,82.82
2022-12-19T05:59:15.139Z,82.69
2022-12-19T06:01:43.210Z,82.51
2022-12-19T06:04:11.456Z,82.36
2022-12-19T06:06:40.839Z,82.56
2022-12-19T06:09:09.021Z,82.86
2022-12-19T06:11:36.924Z,83.25
2022-12-19T06:14:08.516Z,83.09
2022-12-19T06:16:36.626Z,83.08
2022-12-19T06:19:04.584Z,83.23
2022-12-19T06:21:32.546Z,83.39
2022-12-19T06:24:02.261Z,82.95
2022-12-19T06:26:31.166Z,82.92
2022-12-19T06:28:59.158Z,82.93
2022-12-19T06:31:27.216Z,83.15
2022-12-19T06:33:56.832Z,83.71
2022-12-19T06:36:26.475Z,83.32
2022-12-19T06:38:57.714Z,83.38
2022-12-19T06:41:45.835Z,83.21
2022-12-19T06:44:15.964Z,83.28
2022-12-19T06:46:44.967Z,83.98
2022-12-19T06:49:13.505Z,84.16
2022-12-19T06:51:41.554Z,84.05
2022-12-19T06:54:10.979Z,84.61
2022-12-19T06:56:41.687Z,84.55
2022-12-19T06:59:13.477Z,84.33
2022-12-19T07:01:53.569Z,84.33
2022-12-19T07:04:26.293Z,84.56
2022-12-19T07:06:54.435Z,84.51
2022-12-19T07:09:22.803Z,84.52
2022-12-19T07:11:52.136Z,84.85
2022-12-19T07:14:20.163Z,84.67
2022-12-19T07:16:50.406Z,84.92
2022-12-19T07:19:18.998Z,85.18
2022-12-19T07:21:46.998Z,85.41
2022-12-19T07:24:16.146Z,84.99
2022-12-19T07:26:45.350Z,84.97
2022-12-19T07:29:15.614Z,84.60
2022-12-19T07:31:44.009Z,84.98
2022-12-19T07:34:12.021Z,85.76
2022-12-19T07:36:40.064Z,86.18
2022-12-19T07:39:08.028Z,86.05
2022-12-19T07:41:38.094Z,85.86
2022-12-19T07:44:06.645Z,85.68
2022-12-19T07:46:36.308Z,85.95
2022-12-19T07:49:04.532Z,86.24
2022-12-19T07:51:32.400Z,86.12
2022-12-19T07:54:00.440Z,86.26
2022-12-19T07:56:28.935Z,85.93
2022-12-19T07:58:57.080Z,85.97
2022-12-19T08:01:28.168Z,86.12
2022-12-19T08:03:59.042Z,86.12
2022-12-19T08:06:27.464Z,86.09
2022-12-19T08:08:56.100Z,85.57
2022-12-19T08:11:27.739Z,85.42
2022-12-19T08:13:56.618Z,85.89
2022-12-19T08:16:26.960Z,86.12
2022-12-19T08:18:55.891Z,86.67
2022-12-19T08:21:26.025Z,86.59
2022-12-19T08:23:54.171Z,86.55
2022-12-19T08:26:25.663Z,86.50
2022-12-19T08:28:54.689Z,86.78
2022-12-19T08:31:25.098Z,87.11
2022-12-19T08:33:54.080Z,86.68
2022-12-19T08:36:23.228Z,86.83
2022-12-19T08:38:53.137Z,87.18
2022-12-19T08:41:21.457Z,87.33
2022-12-19T08:43:51.255Z,87.41
2022-12-19T08:46:19.486Z,87.63
2022-12-19T08:48:47.816Z,88.32
2022-12-19T08:51:17.007Z,88.23
2022-12-19T08:53:46.443Z,88.06
2022-12-19T08:56:18.437Z,88.16
2022-12-19T08:58:47.085Z,88.29
2022-12-19T09:01:19.346Z,87.87
2022-12-19T09:04:27.928Z,87.80
2022-12-19T09:06:36.819Z,87.69
2022-12-19T09:09:05.883Z,87.88
2022-12-19T09:11:39.193Z,87.76
2022-12-19T09:14:21.065Z,87.81
2022-12-19T09:16:50.081Z,88.04
2022-12-19T09:19:18.347Z,88.01
2022-12-19T09:21:46.428Z,88.12
2022-12-19T09:24:14.663Z,88.38
2022-12-19T09:26:44.891Z,88.68
2022-12-19T09:29:19.610Z,88.34
2022-12-19T09:31:51.175Z,88.11
2022-12-19T09:34:29.983Z,88.02
2022-12-19T09:37:07.382Z,87.96
2022-12-19T09:39:36.174Z,87.76
2022-12-19T09:42:44.227Z,87.99
2022-12-19T09:45:31.926Z,87.34
2022-12-19T09:48:01.907Z,87.94
2022-12-19T09:50:44.852Z,87.99
2022-12-19T09:53:20.247Z,88.14
2022-12-19T09:55:49.622Z,88.37
2022-12-19T09:58:32.006Z,88.70
2022-12-19T10:01:07.442Z,88.02
2022-12-19T10:03:40.207Z,87.60
2022-12-19T10:07:11.271Z,87.65
2022-12-19T10:10:16.537Z,87.43
2022-12-19T10:12:38.589Z,87.61
2022-12-19T10:15:07.684Z,87.22
2022-12-19T10:17:51.913Z,87.77
2022-12-19T10:20:28.163Z,87.92
2022-12-19T10:23:07.223Z,88.18
2022-12-19T10:25:51.856Z,88.88
2022-12-19T10:28:42.034Z,88.69
2022-12-19T10:31:22.384Z,88.87
2022-12-19T10:33:58.372Z,88.96
2022-12-19T10:37:03.988Z,88.78
2022-12-19T10:39:25.280Z,88.40
2022-12-19T10:41:58.212Z,88.75
2022-12-19T10:44:29.461Z,88.89
2022-12-19T10:46:58.973Z,88.63
2022-12-19T10:49:28.449Z,88.94
2022-12-19T10:52:01.405Z,88.66
2022-12-19T10:54:41.035Z,88.69
2022-12-19T10:57:26.139Z,88.05
2022-12-19T11:00:01.735Z,88.23
2022-12-19T11:02:44.597Z,88.50
2022-12-19T11:05:26.565Z,88.41
2022-12-19T11:08:18.660Z,88.45
2022-12-19T11:12:35.788Z,88.24
2022-12-19T11:19:22.143Z,88.27
2022-12-19T11:23:51.989Z,88.49
2022-12-19T11:29:17.531Z,88.33
2022-12-19T11:29:43.287Z,88.45
2022-12-19T11:30:25.889Z,88.64
2022-12-19T11:30:37.986Z,88.94
2022-12-19T11:34:03.085Z,89.05
2022-12-19T11:36:39.046Z,88.84
2022-12-19T11:39:16.743Z,88.99
2022-12-19T11:41:51.966Z,89.02
2022-12-19T11:44:30.187Z,89.06
2022-12-19T11:47:06.856Z,89.25
2022-12-19T11:49:41.556Z,89.58
2022-12-19T11:53:02.195Z,89.43
2022-12-19T11:55:18.883Z,89.36
2022-12-19T11:57:47.652Z,89.61
2022-12-19T12:00:20.435Z,89.24
2022-12-19T12:03:08.941Z,89.46
2022-12-19T12:05:47.120Z,89.49
2022-12-19T12:12:33.463Z,89.09
2022-12-19T12:17:28.995Z,89.09
2022-12-19T12:18:49.170Z,89.39
2022-12-19T12:27:47.379Z,89.15
2022-12-19T12:31:40.036Z,89.36
2022-12-19T12:31:49.890Z,88.76
2022-12-19T12:31:51.877Z,89.56
2022-12-19T12:31:57.584Z,88.86
2022-12-19T12:35:33.637Z,87.86
2022-12-19T12:38:36.268Z,88.58
2022-12-19T12:41:09.158Z,88.70
2022-12-19T12:43:54.942Z,88.84
2022-12-19T12:46:28.333Z,88.99
2022-12-19T12:49:02.986Z,88.72
2022-12-19T12:51:33.279Z,88.71
2022-12-19T12:54:07.481Z,88.83
2022-12-19T12:56:36.503Z,88.66
2022-12-19T12:59:19.946Z,89.08
2022-12-19T13:01:52.118Z,88.58
2022-12-19T13:04:27.426Z,88.33
2022-12-19T13:07:19.950Z,88.42
2022-12-19T13:09:55.617Z,88.60
2022-12-19T13:12:45.664Z,88.55
2022-12-19T13:15:39.772Z,88.10
2022-12-19T13:18:14.406Z,88.71
2022-12-19T13:20:48.027Z,88.61
2022-12-19T13:23:23.805Z,88.45
2022-12-19T13:25:55.050Z,87.93
2022-12-19T13:28:41.674Z,88.08
2022-12-19T13:31:22.968Z,87.98
2022-12-19T13:34:20.246Z,88.44
2022-12-19T13:39:48.862Z,88.80
2022-12-19T13:40:08.790Z,88.88
2022-12-19T13:43:09.534Z,89.41
2022-12-19T13:45:49.084Z,88.79
2022-12-19T13:48:25.650Z,88.73
2022-12-19T13:50:54.461Z,88.58
2022-12-19T13:53:24.949Z,88.51
2022-12-19T13:55:56.017Z,88.26
2022-12-19T13:58:29.865Z,88.17
2022-12-19T14:01:04.749Z,88.27
2022-12-19T14:03:39.722Z,89.23
2022-12-19T14:06:19.737Z,88.81
2022-12-19T14:08:59.288Z,89.61
2022-12-19T14:13:38.401Z,89.12
2022-12-19T14:15:12.181Z,88.91
2022-12-19T14:17:38.438Z,89.23
2022-12-19T14:22:01.715Z,88.85
2022-12-19T14:23:11.675Z,89.57
2022-12-19T14:28:21.682Z,88.97
2022-12-19T14:28:41.598Z,89.20
2022-12-19T14:31:15.006Z,89.54
2022-12-19T14:34:04.213Z,89.01
2022-12-19T14:36:34.251Z,89.30
2022-12-19T14:39:25.134Z,89.29
2022-12-19T14:42:19.242Z,88.85
2022-12-19T14:52:51.858Z,88.88
2022-12-19T14:54:16.119Z,88.27
2022-12-19T14:54:25.524Z,87.59
2022-12-19T14:54:37.843Z,87.74
2022-12-19T14:59:02.759Z,87.21
2022-12-19T15:01:33.712Z,87.04
2022-12-19T15:04:50.875Z,86.98
2022-12-19T15:07:09.586Z,86.71
2022-12-19T15:11:06.501Z,86.58
2022-12-19T15:14:48.944Z,86.10
2022-12-19T15:16:03.388Z,86.31
2022-12-19T15:18:40.366Z,86.00
2022-12-19T15:21:13.515Z,85.45
2022-12-19T15:23:42.200Z,86.13
2022-12-19T15:26:15.694Z,85.94
2022-12-19T15:28:47.893Z,85.78
2022-12-19T15:31:26.892Z,85.97
2022-12-19T15:36:47.546Z,85.52
2022-12-19T15:39:16.100Z,85.16
2022-12-19T15:41:46.291Z,84.56
2022-12-19T15:44:20.300Z,84.53
2022-12-19T15:46:50.012Z,84.47
2022-12-19T15:49:20.594Z,84.86
2022-12-19T15:51:51.417Z,84.53
2022-12-19T15:57:18.381Z,84.02
2022-12-19T15:59:47.050Z,84.50
2022-12-19T16:02:24.207Z,85.01
2022-12-19T16:04:59.757Z,84.69
2022-12-19T16:07:35.421Z,84.59
2022-12-19T16:10:05.416Z,84.71
2022-12-19T16:12:38.041Z,85.19
2022-12-19T16:15:08.759Z,85.59
2022-12-19T16:17:37.008Z,86.56
2022-12-19T16:20:15.388Z,86.40
2022-12-19T16:22:44.884Z,85.88
2022-12-19T16:25:13.841Z,86.64
2022-12-19T16:27:43.159Z,86.87
2022-12-19T16:30:20.175Z,86.36
2022-12-19T16:32:48.390Z,85.86
2022-12-19T16:35:34.377Z,86.56
2022-12-19T16:38:09.327Z,86.57
2022-12-19T16:40:37.686Z,86.43
2022-12-19T16:43:07.630Z,87.01
2022-12-19T16:45:35.893Z,87.70
2022-12-19T16:48:03.859Z,87.98
2022-12-19T16:50:32.955Z,88.41
2022-12-19T16:53:00.859Z,88.22
2022-12-19T16:55:30.155Z,87.98
2022-12-19T16:57:59.045Z,87.86
2022-12-19T17:00:27.630Z,86.95
2022-12-19T17:03:01.383Z,86.76
2022-12-19T17:05:31.668Z,87.29
2022-12-19T17:08:00.718Z,87.26
2022-12-19T17:10:32.665Z,86.75
2022-12-19T17:13:03.668Z,86.27
2022-12-19T17:15:35.376Z,85.80
2022-12-19T17:18:05.693Z,86.24
2022-12-19T17:20:39.660Z,86.55
2022-12-19T17:23:15.919Z,86.57
2022-12-19T17:25:45.783Z,86.42
2022-12-19T17:28:14.204Z,86.32
2022-12-19T17:30:45.402Z,86.66
2022-12-19T17:33:15.464Z,86.68
2022-12-19T17:35:46.345Z,86.60
2022-12-19T17:38:17.485Z,86.48
2022-12-19T17:40:47.055Z,86.11
2022-12-19T17:43:15.205Z,85.71
2022-12-19T17:45:43.410Z,85.44
2022-12-19T17:48:20.567Z,85.51
2022-12-19T17:50:48.609Z,84.93
2022-12-19T17:53:17.243Z,84.68
2022-12-19T17:56:37.418Z,85.04
2022-12-19T17:59:09.247Z,84.73
2022-12-19T18:01:41.630Z,84.78
2022-12-19T18:04:14.713Z,84.97
2022-12-19T18:06:43.317Z,83.85
2022-12-19T18:09:19.426Z,83.55
2022-12-19T18:11:48.092Z,83.13
2022-12-19T18:14:18.164Z,83.03
2022-12-19T18:16:47.255Z,82.61
2022-12-19T18:19:19.089Z,82.46
2022-12-19T18:21:47.506Z,82.16
2022-12-19T18:24:16.375Z,82.67
2022-12-19T18:26:44.723Z,82.56
2022-12-19T18:29:13.226Z,81.76
2022-12-19T18:31:50.022Z,82.54
2022-12-19T18:34:21.649Z,82.58
2022-12-19T18:36:49.930Z,82.46
2022-12-19T18:39:21.634Z,82.36
2022-12-19T18:41:50.304Z,81.62
2022-12-19T18:44:18.732Z,81.33
2022-12-19T18:46:50.124Z,81.25
2022-12-19T18:49:18.535Z,81.16
2022-12-19T18:51:46.784Z,81.61
2022-12-19T18:54:17.162Z,81.68
2022-12-19T18:56:45.537Z,82.65
2022-12-19T18:59:14.307Z,82.34
2022-12-19T19:01:44.426Z,81.26
2022-12-19T19:04:17.510Z,80.83
2022-12-19T19:06:50.864Z,80.90
2022-12-19T19:09:21.450Z,81.15
2022-12-19T19:12:08.027Z,81.29
2022-12-19T19:14:36.131Z,81.00
2022-12-19T19:17:05.729Z,81.01
2022-12-19T19:19:35.038Z,80.49
2022-12-19T19:22:03.003Z,80.39
2022-12-19T19:24:31.232Z,79.59
2022-12-19T19:26:59.144Z,79.93
2022-12-19T19:29:27.092Z,79.60
2022-12-19T19:31:54.992Z,79.78
2022-12-19T19:34:27.991Z,80.35
2022-12-19T19:36:59.859Z,80.12
2022-12-19T19:39:28.556Z,80.25
2022-12-19T19:41:57.127Z,80.35
2022-12-19T19:44:25.058Z,80.04
2022-12-19T19:46:52.961Z,79.67
2022-12-19T19:49:22.302Z,79.62
2022-12-19T19:51:50.493Z,79.60
2022-12-19T19:54:19.846Z,79.35
2022-12-19T19:56:47.868Z,80.22
2022-12-19T19:59:16.148Z,80.04
2022-12-19T20:01:45.017Z,79.54
2022-12-19T20:04:13.361Z,79.11
2022-12-19T20:06:41.272Z,79.45
2022-12-19T20:09:09.423Z,79.41
2022-12-19T20:11:38.791Z,79.17
2022-12-19T20:14:06.824Z,79.54
2022-12-19T20:16:34.804Z,79.11
2022-12-19T20:19:02.878Z,78.92
2022-12-19T20:21:30.925Z,78.45
2022-12-19T20:23:58.830Z,78.50
2022-12-19T20:26:26.827Z,78.76
2022-12-19T20:28:56.129Z,78.82
2022-12-19T20:31:25.177Z,78.74
2022-12-19T20:33:56.979Z,78.20
2022-12-19T20:36:26.166Z,78.09
2022-12-19T20:38:54.264Z,78.20
2022-12-19T20:41:22.449Z,77.84
2022-12-19T20:43:52.438Z,78.06
2022-12-19T20:46:23.625Z,77.79
2022-12-19T20:48:52.687Z,77.66
2022-12-19T20:51:22.653Z,77.49
2022-12-19T20:53:53.525Z,77.73
2022-12-19T20:56:23.323Z,77.75
2022-12-19T20:58:51.703Z,77.60
2022-12-19T21:01:23.485Z,77.92
2022-12-19T21:03:52.579Z,77.64
2022-12-19T21:06:25.456Z,77.72
2022-12-19T21:08:53.859Z,77.47
2022-12-19T21:11:22.593Z,77.56
2022-12-19T21:13:50.596Z,77.39
2022-12-19T21:16:21.948Z,76.85
2022-12-19T21:18:51.657Z,76.96
2022-12-19T21:21:22.316Z,77.18
2022-12-19T21:23:51.048Z,78.04
2022-12-19T21:26:19.863Z,77.47
2022-12-19T21:28:48.215Z,77.89
2022-12-19T21:31:18.304Z,78.14
2022-12-19T21:33:47.877Z,77.75
2022-12-19T21:36:19.176Z,77.50
2022-12-19T21:38:47.631Z,78.03
2022-12-19T21:41:20.739Z,77.87
2022-12-19T21:43:52.538Z,78.24
2022-12-19T21:46:23.555Z,77.97
2022-12-19T21:48:54.873Z,77.26
2022-12-19T21:51:25.623Z,77.76
2022-12-19T21:53:55.866Z,77.16
2022-12-19T21:56:26.170Z,77.53
2022-12-19T21:58:55.678Z,77.09
2022-12-19T22:01:24.658Z,77.02
2022-12-19T22:03:54.834Z,77.27
2022-12-19T22:06:28.442Z,76.95
2022-12-19T22:08:57.668Z,77.57
2022-12-19T22:11:26.185Z,77.00
2022-12-19T22:13:54.820Z,77.18
2022-12-19T22:16:23.052Z,77.23
2022-12-19T22:18:53.071Z,77.25
2022-12-19T22:21:22.702Z,77.14
2022-12-19T22:23:50.868Z,77.43
2022-12-19T22:26:21.844Z,76.88
2022-12-19T22:28:52.509Z,77.10
2022-12-19T22:31:23.611Z,76.61
2022-12-19T22:33:54.926Z,77.44
2022-12-19T22:36:28.279Z,77.16
2022-12-19T22:38:57.987Z,77.08
2022-12-19T22:41:26.832Z,77.34
2022-12-19T22:43:55.358Z,77.57
2022-12-19T22:46:26.212Z,77.49
2022-12-19T22:48:56.432Z,76.61
2022-12-19T22:51:26.929Z,76.58
2022-12-19T22:53:55.554Z,76.25
2022-12-19T22:56:26.237Z,76.50
2022-12-19T22:58:57.609Z,76.21
2022-12-19T23:01:29.137Z,76.16
2022-12-19T23:04:01.981Z,76.37
2022-12-19T23:06:33.754Z,76.12
2022-12-19T23:09:03.372Z,76.19
2022-12-19T23:11:34.841Z,76.47
2022-12-19T23:14:04.007Z,76.55
2022-12-19T23:16:32.110Z,76.72
2022-12-19T23:19:00.125Z,77.18
2022-12-19T23:21:28.937Z,77.19
2022-12-19T23:23:58.601Z,77.46
2022-12-19T23:26:28.967Z,77.69
2022-12-19T23:28:58.972Z,77.09
2022-12-19T23:31:28.662Z,76.92
2022-12-19T23:33:57.390Z,77.05
2022-12-19T23:37:08.194Z,76.63
2022-12-19T23:39:18.392Z,77.22
2022-12-19T23:41:46.283Z,77.75
2022-12-19T23:44:14.356Z,78.50
2022-12-19T23:46:42.678Z,78.30
2022-12-19T23:49:10.838Z,77.76
2022-12-19T23:51:38.812Z,78.08
2022-12-19T23:54:08.901Z,78.73
2022-12-19T23:56:41.492Z,78.61
2022-12-19T23:59:12.087Z,79.02
